createdAt,value
2018-12-01T00:01:18.306Z,100208.64
2018-12-01T00:03:51.770Z,100208.64
2018-12-01T00:06:25.336Z,100196.31
2018-12-01T00:08:59.344Z,100196.31
2018-12-01T00:11:32.691Z,100202.22
2018-12-01T00:14:07.379Z,100210.39
2018-12-01T00:16:40.724Z,100205.47
2018-12-01T00:19:14.302Z,100209.73
2018-12-01T00:21:47.997Z,100209.73
2018-12-01T00:24:21.501Z,100202.61
2018-12-01T00:26:55.019Z,100202.26
2018-12-01T00:29:28.539Z,100214.03
2018-12-01T00:32:01.898Z,100211.48
2018-12-01T00:34:35.720Z,100211.17
2018-12-01T00:37:08.289Z,100212.53
2018-12-01T00:39:41.304Z,100209.98
2018-12-01T00:42:14.799Z,100209.98
2018-12-01T00:44:48.348Z,100210.82
2018-12-01T00:47:21.731Z,100210.82
2018-12-01T00:49:55.373Z,100212.92
2018-12-01T00:52:28.760Z,100212.92
2018-12-01T00:55:01.304Z,100222.45
2018-12-01T00:57:33.856Z,100218.37
2018-12-01T01:00:08.271Z,100218.37
2018-12-01T01:02:41.686Z,100218.37
2018-12-01T01:05:15.302Z,100212.12
2018-12-01T01:07:49.356Z,100212.12
2018-12-01T01:12:16.258Z,100222.45
2018-12-01T01:14:49.666Z,100221.84
2018-12-01T01:17:23.253Z,100225.92
2018-12-01T01:19:56.743Z,100227.28
2018-12-01T01:22:30.266Z,100224.11
2018-12-01T01:25:03.714Z,100224.11
2018-12-01T01:27:38.294Z,100228.13
2018-12-01T01:30:18.308Z,100228.13
2018-12-01T01:32:52.674Z,100234.63
2018-12-01T01:35:26.117Z,100229.69
2018-12-01T01:37:59.494Z,100234.30
2018-12-01T01:40:32.985Z,100233.26
2018-12-01T01:43:06.502Z,100234.80
2018-12-01T01:45:40.355Z,100230.71
2018-12-01T01:48:13.637Z,100224.42
2018-12-01T01:50:47.300Z,100229.34
2018-12-01T01:53:20.564Z,100226.83
2018-12-01T01:55:53.869Z,100219.19
2018-12-01T01:58:26.179Z,100225.47
2018-12-01T02:00:59.689Z,100227.98
2018-12-01T02:03:33.330Z,100225.26
2018-12-01T02:06:07.301Z,100225.26
2018-12-01T02:08:40.873Z,100232.07
2018-12-01T02:11:13.088Z,100229.03
2018-12-01T02:13:47.398Z,100232.59
2018-12-01T02:16:21.570Z,100228.72
2018-12-01T02:18:55.485Z,100225.99
2018-12-01T02:21:30.767Z,100225.99
2018-12-01T02:24:04.270Z,100229.73
2018-12-01T02:26:37.829Z,100228.89
2018-12-01T02:31:30.887Z,100224.28
2018-12-01T02:34:02.719Z,100223.13
2018-12-01T02:36:36.298Z,100225.34
2018-12-01T02:41:52.523Z,100222.74
2018-12-01T02:45:46.389Z,100229.77
2018-12-01T02:48:19.966Z,100225.34
2018-12-01T02:50:53.496Z,100229.67
2018-12-01T02:53:27.012Z,100219.61
2018-12-01T02:56:00.519Z,100228.13
2018-12-01T02:58:34.325Z,100232.22
2018-12-01T03:01:08.068Z,100236.61
2018-12-01T03:03:41.878Z,100239.66
2018-12-01T03:06:14.263Z,100237.45
2018-12-01T03:08:48.058Z,100236.61
2018-12-01T03:11:21.318Z,100240.70
2018-12-01T03:13:54.670Z,100249.92
2018-12-01T03:16:28.304Z,100242.83
2018-12-01T03:19:01.702Z,100242.83
2018-12-01T03:21:35.811Z,100248.73
2018-12-01T03:24:09.065Z,100264.55
2018-12-01T03:26:41.721Z,100256.38
2018-12-01T03:29:14.582Z,100264.23
2018-12-01T03:31:47.417Z,100265.08
2018-12-01T03:34:21.544Z,100268.33
2018-12-01T03:36:55.344Z,100265.08
2018-12-01T03:39:29.540Z,100266.61
2018-12-01T03:42:03.353Z,100269.02
2018-12-01T03:44:37.304Z,100267.14
2018-12-01T03:47:11.313Z,100270.38
2018-12-01T03:49:44.734Z,100269.20
2018-12-01T03:52:18.544Z,100253.16
2018-12-01T03:54:51.815Z,100253.16
2018-12-01T03:57:25.568Z,100260.48
2018-12-01T03:59:59.684Z,100260.48
2018-12-01T04:02:33.412Z,100285.05
2018-12-01T04:05:07.402Z,100277.05
2018-12-01T04:07:41.738Z,100283.02
2018-12-01T04:10:15.552Z,100276.21
2018-12-01T04:12:49.560Z,100276.21
2018-12-01T04:15:23.685Z,100275.17
2018-12-01T04:17:57.759Z,100280.30
2018-12-01T04:20:31.552Z,100272.83
2018-12-01T04:23:05.329Z,100272.83
2018-12-01T04:25:39.592Z,100275.14
2018-12-01T04:28:13.577Z,100272.73
2018-12-01T04:30:47.330Z,100276.64
2018-12-01T04:33:21.313Z,100282.23
2018-12-01T04:35:55.081Z,100268.75
2018-12-01T04:38:28.807Z,100273.53
2018-12-01T04:41:02.571Z,100262.77
2018-12-01T04:43:36.077Z,100262.77
2018-12-01T04:46:10.155Z,100266.65
2018-12-01T04:48:44.560Z,100269.58
2018-12-01T04:51:18.641Z,100270.59
2018-12-01T04:53:52.408Z,100270.28
2018-12-01T04:56:26.394Z,100278.77
2018-12-01T04:59:00.290Z,100279.81
2018-12-01T05:01:34.270Z,100283.38
2018-12-01T05:04:08.310Z,100285.27
2018-12-01T05:06:42.380Z,100289.00
2018-12-01T05:09:16.270Z,100287.30
2018-12-01T05:11:50.307Z,100285.94
2018-12-01T05:14:23.840Z,100285.79
2018-12-01T05:16:57.603Z,100284.60
2018-12-01T05:19:31.321Z,100296.86
2018-12-01T05:22:05.832Z,100302.83
2018-12-01T05:24:39.790Z,100282.81
2018-12-01T05:27:13.580Z,100301.44
2018-12-01T05:29:47.552Z,100301.44
2018-12-01T05:32:21.303Z,100314.22
2018-12-01T05:34:55.068Z,100310.97
2018-12-01T05:37:28.770Z,100305.84
2018-12-01T05:40:02.898Z,100301.30
2018-12-01T05:42:35.311Z,100301.30
2018-12-01T05:45:17.065Z,100311.46
2018-12-01T05:47:51.379Z,100311.46
2018-12-01T05:50:28.668Z,100306.02
2018-12-01T05:53:03.394Z,100310.45
2018-12-01T05:55:37.405Z,100309.58
2018-12-01T05:58:11.308Z,100310.24
2018-12-01T06:00:45.303Z,100319.78
2018-12-01T06:03:19.064Z,100326.17
2018-12-01T06:05:52.746Z,100327.25
2018-12-01T06:08:26.625Z,100344.17
2018-12-01T06:11:00.395Z,100344.17
2018-12-01T06:13:34.139Z,100340.66
2018-12-01T06:16:08.307Z,100343.69
2018-12-01T06:18:41.857Z,100343.86
2018-12-01T06:21:15.283Z,100353.88
2018-12-01T06:23:53.154Z,100362.37
2018-12-01T06:26:36.594Z,100354.83
2018-12-01T06:29:10.348Z,100352.33
2018-12-01T06:31:44.543Z,100350.77
2018-12-01T06:34:18.318Z,100346.27
2018-12-01T06:36:52.280Z,100351.72
2018-12-01T06:39:26.313Z,100339.53
2018-12-01T06:42:00.298Z,100343.55
2018-12-01T06:44:34.857Z,100345.95
2018-12-01T06:47:07.603Z,100351.56
2018-12-01T06:49:42.736Z,100341.23
2018-12-01T06:52:16.860Z,100343.69
2018-12-01T06:54:49.628Z,100343.69
2018-12-01T06:57:23.396Z,100344.37
2018-12-01T07:00:26.312Z,100339.67
2018-12-01T07:03:00.714Z,100348.44
2018-12-01T07:05:34.147Z,100354.41
2018-12-01T07:08:07.529Z,100354.41
2018-12-01T07:10:40.899Z,100358.16
2018-12-01T07:13:13.270Z,100357.81
2018-12-01T07:15:46.973Z,100358.86
2018-12-01T07:19:21.527Z,100359.13
2018-12-01T07:21:54.902Z,100358.06
2018-12-01T07:24:27.133Z,100358.63
2018-12-01T07:27:00.712Z,100370.38
2018-12-01T07:29:34.307Z,100372.17
2018-12-01T07:32:08.069Z,100372.17
2018-12-01T07:34:41.540Z,100373.08
2018-12-01T07:37:15.039Z,100373.19
2018-12-01T07:39:50.637Z,100377.07
2018-12-01T07:42:24.274Z,100369.70
2018-12-01T07:44:57.696Z,100374.30
2018-12-01T07:47:30.762Z,100369.43
2018-12-01T07:50:04.319Z,100363.25
2018-12-01T07:52:37.842Z,100363.25
2018-12-01T07:55:11.719Z,100373.91
2018-12-01T07:57:45.553Z,100375.11
2018-12-01T08:00:20.075Z,100381.70
2018-12-01T08:02:54.572Z,100376.08
2018-12-01T08:05:27.890Z,100372.45
2018-12-01T08:08:00.263Z,100380.61
2018-12-01T08:10:33.731Z,100387.30
2018-12-01T08:13:07.675Z,100373.52
2018-12-01T08:15:41.315Z,100373.52
2018-12-01T08:18:14.714Z,100387.37
2018-12-01T08:20:48.391Z,100379.33
2018-12-01T08:23:21.866Z,100379.33
2018-12-01T08:25:54.109Z,100381.78
2018-12-01T08:28:28.703Z,100388.04
2018-12-01T08:31:02.321Z,100397.06
2018-12-01T08:33:35.684Z,100392.06
2018-12-01T08:36:09.310Z,100387.81
2018-12-01T08:38:42.745Z,100387.81
2018-12-01T08:41:16.279Z,100381.30
2018-12-01T08:43:50.717Z,100381.30
2018-12-01T08:46:24.316Z,100387.86
2018-12-01T08:48:57.688Z,100391.19
2018-12-01T08:51:31.278Z,100378.74
2018-12-01T08:54:04.714Z,100378.74
2018-12-01T08:56:38.324Z,100383.91
2018-12-01T08:59:12.082Z,100387.80
2018-12-01T09:01:45.655Z,100386.92
2018-12-01T09:04:19.295Z,100394.29
2018-12-01T09:06:52.712Z,100388.81
2018-12-01T09:09:26.307Z,100390.41
2018-12-01T09:12:00.286Z,100390.41
2018-12-01T09:14:33.722Z,100386.67
2018-12-01T09:17:07.761Z,100389.72
2018-12-01T09:19:41.352Z,100382.55
2018-12-01T09:22:14.742Z,100382.55
2018-12-01T09:24:47.379Z,100386.08
2018-12-01T09:27:22.441Z,100384.05
2018-12-01T09:29:54.690Z,100387.38
2018-12-01T09:32:28.318Z,100382.11
2018-12-01T09:35:01.712Z,100382.11
2018-12-01T09:37:34.531Z,100382.56
2018-12-01T09:40:09.836Z,100386.49
2018-12-01T09:42:43.393Z,100377.98
2018-12-01T09:45:22.070Z,100376.18
2018-12-01T09:47:57.812Z,100379.89
2018-12-01T09:50:31.375Z,100371.17
2018-12-01T09:53:05.031Z,100371.17
2018-12-01T09:55:38.678Z,100368.47
2018-12-01T09:58:12.144Z,100370.51
2018-12-01T10:00:45.646Z,100367.86
2018-12-01T10:03:19.338Z,100361.39
2018-12-01T10:05:52.728Z,100361.84
2018-12-01T10:08:26.482Z,100360.75
2018-12-01T10:11:00.007Z,100360.75
2018-12-01T10:16:05.661Z,100368.86
2018-12-01T10:18:41.572Z,100374.05
2018-12-01T10:21:14.988Z,100374.45
2018-12-01T10:23:48.704Z,100368.73
2018-12-01T10:26:22.445Z,100345.84
2018-12-01T10:28:55.998Z,100345.84
2018-12-01T10:31:29.540Z,100364.76
2018-12-01T10:34:03.312Z,100361.58
2018-12-01T10:36:36.725Z,100360.58
2018-12-01T10:39:13.565Z,100340.84
2018-12-01T10:41:47.303Z,100340.84
2018-12-01T10:44:21.067Z,100354.09
2018-12-01T10:46:54.482Z,100349.62
2018-12-01T10:49:27.869Z,100349.30
2018-12-01T10:52:00.319Z,100338.05
2018-12-01T10:54:33.734Z,100342.34
2018-12-01T10:57:07.539Z,100329.59
2018-12-01T10:59:41.019Z,100329.59
2018-12-01T11:02:32.415Z,100328.23
2018-12-01T11:05:05.950Z,100327.08
2018-12-01T11:07:39.508Z,100333.90
2018-12-01T11:10:13.738Z,100333.90
2018-12-01T11:12:47.323Z,100330.47
2018-12-01T11:15:21.274Z,100330.47
2018-12-01T11:18:15.379Z,100330.47
2018-12-01T11:20:48.687Z,100335.00
2018-12-01T11:23:22.530Z,100318.64
2018-12-01T11:25:56.015Z,100318.64
2018-12-01T11:28:29.926Z,100316.22
2018-12-01T11:31:03.601Z,100319.48
2018-12-01T11:33:37.306Z,100327.13
2018-12-01T11:36:11.681Z,100325.06
2018-12-01T11:38:45.265Z,100322.72
2018-12-01T11:41:19.097Z,100327.12
2018-12-01T11:43:52.498Z,100324.08
2018-12-01T11:46:26.391Z,100321.67
2018-12-01T11:48:59.887Z,100324.92
2018-12-01T11:51:32.143Z,100324.08
2018-12-01T11:54:05.513Z,100318.09
2018-12-01T11:56:39.657Z,100319.78
2018-12-01T11:59:13.540Z,100318.41
2018-12-01T12:01:47.308Z,100319.25
2018-12-01T12:04:20.686Z,100327.12
2018-12-01T12:06:55.515Z,100306.09
2018-12-01T12:09:28.902Z,100306.09
2018-12-01T12:12:02.514Z,100316.73
2018-12-01T12:14:36.314Z,100319.78
2018-12-01T12:17:10.498Z,100319.78
2018-12-01T12:19:44.805Z,100326.12
2018-12-01T12:22:17.260Z,100326.12
2018-12-01T12:24:51.316Z,100323.78
2018-12-01T12:27:24.820Z,100323.12
2018-12-01T12:29:57.264Z,100326.38
2018-12-01T12:32:32.311Z,100327.08
2018-12-01T12:35:05.718Z,100329.14
2018-12-01T12:37:39.506Z,100327.47
2018-12-01T12:41:51.358Z,100324.53
2018-12-01T12:44:25.494Z,100315.23
2018-12-01T12:46:59.431Z,100318.63
2018-12-01T12:49:33.038Z,100315.69
2018-12-01T12:52:06.815Z,100320.12
2018-12-01T12:54:40.314Z,100314.67
2018-12-01T12:57:14.403Z,100314.67
2018-12-01T12:59:48.665Z,100316.56
2018-12-01T13:02:22.269Z,100322.77
2018-12-01T13:04:56.299Z,100327.69
2018-12-01T13:07:29.699Z,100327.54
2018-12-01T13:10:03.278Z,100325.17
2018-12-01T13:12:36.729Z,100330.00
2018-12-01T13:15:16.314Z,100314.30
2018-12-01T13:17:50.405Z,100314.30
2018-12-01T13:20:28.306Z,100312.91
2018-12-01T13:23:05.766Z,100312.48
2018-12-01T13:25:39.281Z,100313.05
2018-12-01T13:28:24.260Z,100295.52
2018-12-01T13:31:02.774Z,100295.52
2018-12-01T13:33:35.543Z,100292.72
2018-12-01T13:36:10.031Z,100292.72
2018-12-01T13:38:44.096Z,100288.03
2018-12-01T13:41:17.514Z,100287.59
2018-12-01T13:43:51.403Z,100287.30
2018-12-01T13:46:24.981Z,100290.75
2018-12-01T13:48:58.818Z,100292.49
2018-12-01T13:51:37.301Z,100285.70
2018-12-01T13:54:11.306Z,100285.70
2018-12-01T13:56:44.704Z,100293.39
2018-12-01T13:59:18.344Z,100289.09
2018-12-01T14:01:53.127Z,100286.07
2018-12-01T14:04:26.816Z,100287.48
2018-12-01T14:06:59.262Z,100277.58
2018-12-01T14:09:32.740Z,100277.58
2018-12-01T14:12:09.063Z,100290.88
2018-12-01T14:14:42.777Z,100290.88
2018-12-01T14:17:16.515Z,100299.77
2018-12-01T14:19:49.907Z,100299.77
2018-12-01T14:22:22.108Z,100299.19
2018-12-01T14:27:38.091Z,100297.67
2018-12-01T14:30:19.514Z,100295.47
2018-12-01T14:32:52.660Z,100297.16
2018-12-01T14:35:37.645Z,100300.26
2018-12-01T14:38:19.301Z,100301.30
2018-12-01T14:40:54.290Z,100303.21
2018-12-01T14:43:27.708Z,100299.30
2018-12-01T14:46:01.313Z,100293.95
2018-12-01T14:48:35.305Z,100293.95
2018-12-01T14:51:09.346Z,100299.62
2018-12-01T14:53:42.566Z,100304.12
2018-12-01T14:56:15.989Z,100293.14
2018-12-01T14:58:49.538Z,100298.80
2018-12-01T15:01:23.388Z,100306.88
2018-12-01T15:03:56.907Z,100315.20
2018-12-01T15:06:29.266Z,100317.61
2018-12-01T15:09:02.721Z,100319.98
2018-12-01T15:11:36.682Z,100324.98
2018-12-01T15:14:10.396Z,100324.98
2018-12-01T15:16:43.895Z,100320.30
2018-12-01T15:19:16.327Z,100322.48
2018-12-01T15:21:50.554Z,100320.86
2018-12-01T15:24:24.007Z,100328.51
2018-12-01T15:26:57.302Z,100320.06
2018-12-01T15:29:31.307Z,100314.66
2018-12-01T15:32:04.764Z,100316.25
2018-12-01T15:34:38.306Z,100304.70
2018-12-01T15:37:11.727Z,100304.70
2018-12-01T15:39:45.225Z,100301.33
2018-12-01T15:42:18.648Z,100301.33
2018-12-01T15:44:52.460Z,100302.03
2018-12-01T15:47:26.006Z,100305.84
2018-12-01T15:49:59.476Z,100307.64
2018-12-01T15:52:33.294Z,100312.16
2018-12-01T15:56:07.356Z,100320.23
2018-12-01T15:58:40.878Z,100316.39
2018-12-01T16:01:13.331Z,100309.05
2018-12-01T16:03:47.258Z,100307.34
2018-12-01T16:06:21.303Z,100303.84
2018-12-01T16:08:55.338Z,100302.46
2018-12-01T16:11:29.059Z,100298.53
2018-12-01T16:14:02.758Z,100302.98
2018-12-01T16:16:36.348Z,100301.72
2018-12-01T16:19:10.535Z,100301.72
2018-12-01T16:21:43.971Z,100303.58
2018-12-01T16:24:17.753Z,100297.72
2018-12-01T16:26:50.289Z,100304.48
2018-12-01T16:29:23.691Z,100305.94
2018-12-01T16:31:57.305Z,100312.82
2018-12-01T16:34:30.722Z,100312.56
2018-12-01T16:37:04.360Z,100302.81
2018-12-01T16:39:37.984Z,100302.81
2018-12-01T16:42:12.539Z,100305.17
2018-12-01T16:44:46.595Z,100301.27
2018-12-01T16:47:20.264Z,100296.86
2018-12-01T16:49:53.696Z,100298.34
2018-12-01T16:52:27.352Z,100291.27
2018-12-01T16:55:00.895Z,100291.27
2018-12-01T16:57:34.564Z,100293.20
2018-12-01T17:00:13.063Z,100293.20
2018-12-01T17:02:51.278Z,100296.89
2018-12-01T17:05:27.001Z,100286.81
2018-12-01T17:08:00.602Z,100272.45
2018-12-01T17:10:35.063Z,100276.67
2018-12-01T17:13:10.019Z,100276.27
2018-12-01T17:15:43.704Z,100275.55
2018-12-01T17:18:17.380Z,100276.20
2018-12-01T17:20:51.120Z,100276.20
2018-12-01T17:23:24.734Z,100261.84
2018-12-01T17:25:57.319Z,100265.19
2018-12-01T17:28:30.332Z,100259.84
2018-12-01T17:31:04.281Z,100259.84
2018-12-01T17:33:38.090Z,100257.23
2018-12-01T17:36:11.661Z,100246.12
2018-12-01T17:38:45.300Z,100247.34
2018-12-01T17:41:27.405Z,100239.27
2018-12-01T17:44:11.308Z,100236.54
2018-12-01T17:46:44.720Z,100248.61
2018-12-01T17:49:18.298Z,100240.54
2018-12-01T17:51:52.345Z,100240.54
2018-12-01T17:54:25.939Z,100248.61
2018-12-01T17:56:59.531Z,100238.24
2018-12-01T17:59:33.307Z,100239.59
2018-12-01T18:02:07.062Z,100233.56
2018-12-01T18:04:41.303Z,100230.25
2018-12-01T18:07:14.726Z,100220.79
2018-12-01T18:09:48.541Z,100204.22
2018-12-01T18:15:03.268Z,100196.16
2018-12-01T18:17:36.735Z,100191.78
2018-12-01T18:20:27.894Z,100189.64
2018-12-01T18:23:01.270Z,100180.98
2018-12-01T18:25:43.890Z,100179.72
2018-12-01T18:28:19.481Z,100189.67
2018-12-01T18:30:52.963Z,100183.56
2018-12-01T18:33:42.551Z,100184.58
2018-12-01T18:36:18.052Z,100184.58
2018-12-01T18:38:53.826Z,100176.27
2018-12-01T18:41:27.293Z,100167.06
2018-12-01T18:44:01.314Z,100167.06
2018-12-01T18:46:34.664Z,100174.53
2018-12-01T18:49:08.786Z,100167.19
2018-12-01T18:56:46.009Z,100159.42
2018-12-01T18:59:19.541Z,100152.70
2018-12-01T19:01:56.073Z,100157.69
2018-12-01T19:04:29.506Z,100153.84
2018-12-01T19:07:02.998Z,100151.64
2018-12-01T19:09:36.522Z,100154.30
2018-12-01T19:12:10.284Z,100154.11
2018-12-01T19:14:44.303Z,100157.20
2018-12-01T19:17:17.778Z,100151.54
2018-12-01T19:19:50.543Z,100151.17
2018-12-01T19:22:23.623Z,100153.13
2018-12-01T19:24:57.027Z,100165.56
2018-12-01T19:27:30.579Z,100162.77
2018-12-01T19:30:05.332Z,100155.54
2018-12-01T19:32:38.379Z,100151.55
2018-12-01T19:35:30.572Z,100151.55
2018-12-01T19:38:04.012Z,100149.43
2018-12-01T19:40:38.791Z,100147.00
2018-12-01T19:43:12.351Z,100144.27
2018-12-01T19:45:46.011Z,100144.27
2018-12-01T19:48:19.583Z,100154.64
2018-12-01T19:50:53.506Z,100151.36
2018-12-01T19:53:27.010Z,100138.27
2018-12-01T19:56:00.522Z,100136.78
2018-12-01T19:58:31.390Z,100132.86
2018-12-01T20:01:05.116Z,100127.02
2018-12-01T20:03:38.725Z,100131.06
2018-12-01T20:06:12.687Z,100113.08
2018-12-01T20:08:46.819Z,100113.08
2018-12-01T20:13:47.382Z,100116.55
2018-12-01T20:16:53.512Z,100121.31
2018-12-01T20:19:27.267Z,100119.83
2018-12-01T20:22:01.069Z,100120.95
2018-12-01T20:24:34.518Z,100113.16
2018-12-01T20:27:08.451Z,100115.25
2018-12-01T20:29:42.323Z,100110.19
2018-12-01T20:32:15.915Z,100105.14
2018-12-01T20:34:48.300Z,100114.87
2018-12-01T20:37:22.684Z,100107.09
2018-12-01T20:39:55.418Z,100106.78
2018-12-01T20:42:29.400Z,100111.41
2018-12-01T20:45:02.860Z,100101.20
2018-12-01T20:47:35.942Z,100103.94
2018-12-01T20:50:16.784Z,100099.19
2018-12-01T20:52:51.351Z,100099.19
2018-12-01T20:55:31.399Z,100095.63
2018-12-01T20:58:08.825Z,100083.75
2018-12-01T21:00:41.907Z,100075.04
2018-12-01T21:03:15.464Z,100083.22
2018-12-01T21:05:49.382Z,100070.95
2018-12-01T21:08:27.677Z,100072.31
2018-12-01T21:11:01.776Z,100064.13
2018-12-01T21:13:35.338Z,100061.09
2018-12-01T21:16:09.773Z,100061.09
2018-12-01T21:18:42.935Z,100058.36
2018-12-01T21:21:16.550Z,100046.27
2018-12-01T21:23:49.868Z,100042.48
2018-12-01T21:26:23.287Z,100040.82
2018-12-01T21:28:57.321Z,100044.08
2018-12-01T21:31:31.010Z,100050.05
2018-12-01T21:34:04.546Z,100048.88
2018-12-01T21:36:38.036Z,100049.94
2018-12-01T21:39:13.335Z,100049.56
2018-12-01T21:41:47.389Z,100048.41
2018-12-01T21:44:20.911Z,100042.62
2018-12-01T21:46:53.286Z,100032.23
2018-12-01T21:49:26.701Z,100028.14
2018-12-01T21:52:00.368Z,100017.77
2018-12-01T21:54:33.720Z,100017.77
2018-12-01T21:57:09.667Z,100019.66
2018-12-01T21:59:43.277Z,100002.18
2018-12-01T22:02:19.330Z,100013.02
2018-12-01T22:04:52.692Z,100007.75
2018-12-01T22:07:26.319Z,100004.00
2018-12-01T22:09:59.735Z,100002.30
2018-12-01T22:12:33.366Z,99989.59
2018-12-01T22:15:07.525Z,99989.59
2018-12-01T22:17:41.347Z,99991.92
2018-12-01T22:20:24.793Z,99984.79
2018-12-01T22:22:57.770Z,99985.32
2018-12-01T22:25:31.388Z,99971.97
2018-12-01T22:28:05.004Z,99971.97
2018-12-01T22:30:43.477Z,99977.52
2018-12-01T22:33:25.890Z,99970.39
2018-12-01T22:36:01.334Z,99970.08
2018-12-01T22:38:34.688Z,99976.25
2018-12-01T22:41:08.859Z,99971.63
2018-12-01T22:43:41.300Z,99972.47
2018-12-01T22:46:15.492Z,99971.75
2018-12-01T22:48:49.008Z,99969.67
2018-12-01T22:51:22.781Z,99968.84
2018-12-01T22:53:55.518Z,99964.09
2018-12-01T22:56:28.975Z,99964.09
2018-12-01T22:59:02.670Z,99960.84
2018-12-01T23:01:36.318Z,99959.48
2018-12-01T23:04:10.335Z,99966.30
2018-12-01T23:06:44.066Z,99956.75
2018-12-01T23:09:17.547Z,99963.57
2018-12-01T23:11:50.996Z,99965.89
2018-12-01T23:14:24.505Z,99960.77
2018-12-01T23:16:58.312Z,99953.62
2018-12-01T23:19:32.384Z,99950.24
2018-12-01T23:22:06.113Z,99950.58
2018-12-01T23:24:39.489Z,99939.67
2018-12-01T23:27:12.856Z,99925.39
2018-12-01T23:29:45.254Z,99921.30
2018-12-01T23:32:18.742Z,99915.20
2018-12-01T23:34:53.322Z,99909.13
2018-12-01T23:37:26.716Z,99909.13
2018-12-01T23:40:00.459Z,99903.56
2018-12-01T23:42:34.519Z,99903.56
2018-12-01T23:45:19.391Z,99897.12
2018-12-01T23:47:53.463Z,99887.27
2018-12-01T23:50:31.058Z,99881.51
2018-12-01T23:53:16.539Z,99878.25
2018-12-01T23:55:49.895Z,99872.99
2018-12-01T23:58:22.258Z,99869.43
